Time;durP1;ratioP1;P1;durP2;ratioP2;P2;SDS_P1;SDS_P2;PMS_P1;PMS_P2;Temp;Humidity;BMP_temperature;BMP_pressure;BME280_temperature;BME280_humidity;BME280_pressure;Samples;Min_cycle;Max_cycle;Signal;HPM_P1;HPM_P2
2021/06/20 00:00:22;;;;;;;1.93;1.70;;;;;;;21.79;71.24;99779.53;5047281;28;106863;-71
2021/06/20 00:02:49;;;;;;;1.97;1.87;;;;;;;21.89;71.25;99765.56;5052197;28;20179;-70
2021/06/20 00:05:25;;;;;;;1.67;1.57;;;;;;;21.74;71.88;99758.50;5052185;28;20187;-70
2021/06/20 00:07:51;;;;;;;1.93;1.83;;;;;;;21.75;72.10;99746.16;5051848;28;20213;-71
2021/06/20 00:10:22;;;;;;;1.90;1.80;;;;;;;21.53;73.21;99742.66;5051903;28;20262;-71
2021/06/20 00:12:48;;;;;;;3.57;2.17;;;;;;;21.34;74.37;99724.47;5051844;28;20667;-71
2021/06/20 00:15:17;;;;;;;1.87;1.77;;;;;;;21.36;74.56;99730.41;5051856;28;20179;-71
2021/06/20 00:17:43;;;;;;;1.60;1.50;;;;;;;21.47;73.63;99726.81;5051543;28;20441;-70
2021/06/20 00:20:12;;;;;;;1.67;1.57;;;;;;;21.58;72.68;99730.34;5051639;28;20203;-70
2021/06/20 00:22:37;;;;;;;1.70;1.60;;;;;;;21.63;70.81;99732.72;5033724;28;20190;-70
2021/06/20 00:25:05;;;;;;;1.70;1.60;;;;;;;21.70;70.00;99727.13;5051598;28;20183;-70
2021/06/20 00:27:31;;;;;;;1.73;1.60;;;;;;;21.58;69.44;99730.34;5051473;28;20175;-70
2021/06/20 00:29:56;;;;;;;1.60;1.50;;;;;;;21.58;69.68;99727.56;5051251;28;20184;-71
2021/06/20 00:32:21;;;;;;;1.70;1.60;;;;;;;21.74;69.06;99730.69;5050960;28;20681;-70
2021/06/20 00:34:47;;;;;;;1.77;1.60;;;;;;;21.82;68.74;99726.66;5051394;28;20266;-71
2021/06/20 00:37:12;;;;;;;1.67;1.57;;;;;;;21.78;69.22;99733.44;5051214;28;20258;-73
2021/06/20 00:39:38;;;;;;;2.17;2.07;;;;;;;21.81;69.18;99735.41;5051365;28;20197;-71
2021/06/20 00:42:03;;;;;;;1.60;1.50;;;;;;;21.98;69.06;99749.22;5051357;28;20257;-70
2021/06/20 00:44:28;;;;;;;1.50;1.40;;;;;;;22.07;68.63;99750.81;5051285;28;20579;-71
2021/06/20 00:46:54;;;;;;;1.80;1.70;;;;;;;22.11;67.65;99762.69;5051396;28;20624;-71
2021/06/20 00:49:19;;;;;;;1.43;1.27;;;;;;;22.09;67.34;99765.09;5051049;28;20203;-70
2021/06/20 00:51:45;;;;;;;1.53;1.43;;;;;;;22.13;67.58;99758.34;5051079;28;20247;-71
2021/06/20 00:54:11;;;;;;;1.83;1.73;;;;;;;21.87;68.39;99754.06;5051137;28;20186;-70
2021/06/20 00:56:36;;;;;;;3.13;1.70;;;;;;;21.49;70.14;99753.00;5050988;28;20171;-70
2021/06/20 00:59:04;;;;;;;1.97;1.87;;;;;;;21.33;71.50;99750.69;5050948;28;20187;-71
2021/06/20 01:01:34;;;;;;;1.50;1.40;;;;;;;21.24;72.81;99755.03;5050881;28;20187;-70
2021/06/20 01:04:00;;;;;;;1.63;1.53;;;;;;;21.54;72.87;99757.34;5050881;28;20282;-70
2021/06/20 01:06:27;;;;;;;2.17;2.07;;;;;;;21.65;72.80;99761.69;5050895;28;20621;-71
2021/06/20 01:08:53;;;;;;;1.90;1.80;;;;;;;21.57;73.15;99751.03;5050771;28;20183;-71
2021/06/20 01:11:19;;;;;;;1.50;1.40;;;;;;;21.26;75.14;99752.66;5070938;28;20206;-70
2021/06/20 01:13:46;;;;;;;1.90;1.80;;;;;;;21.43;74.61;99740.75;5063308;28;20183;-70
2021/06/20 01:16:11;;;;;;;2.27;2.10;;;;;;;21.06;75.92;99728.09;5072246;28;20666;-70
2021/06/20 01:18:37;;;;;;;1.53;1.43;;;;;;;21.16;76.10;99720.94;5047009;28;20275;-71
2021/06/20 01:21:04;;;;;;;2.20;2.10;;;;;;;20.79;76.86;99718.59;5051660;28;20387;-70
2021/06/20 01:23:30;;;;;;;1.90;1.80;;;;;;;21.05;76.57;99725.72;5051197;28;20170;-71
2021/06/20 01:25:55;;;;;;;2.07;1.97;;;;;;;21.34;76.05;99732.81;5051050;28;20223;-71
2021/06/20 01:28:26;;;;;;;1.93;1.83;;;;;;;21.47;75.03;99729.59;5050940;28;20661;-71
2021/06/20 01:30:58;;;;;;;1.70;1.57;;;;;;;21.59;74.27;99738.28;5050983;28;20207;-71
2021/06/20 01:33:23;;;;;;;2.43;2.23;;;;;;;21.68;73.89;99732.28;5050981;28;20160;-71
2021/06/20 01:35:49;;;;;;;2.00;1.90;;;;;;;21.14;75.36;99714.97;5050991;28;20175;-71
2021/06/20 01:38:14;;;;;;;2.03;1.80;;;;;;;20.70;77.46;99715.44;5050638;28;20214;-70
2021/06/20 01:40:40;;;;;;;1.93;1.83;;;;;;;20.89;77.06;99715.03;5051201;28;20182;-71
2021/06/20 01:43:05;;;;;;;2.27;2.07;;;;;;;21.15;75.66;99708.22;5050608;28;20887;-70
2021/06/20 01:45:31;;;;;;;2.00;1.90;;;;;;;21.09;75.09;99698.72;5050775;28;20209;-70
2021/06/20 01:47:58;;;;;;;2.23;2.13;;;;;;;20.89;75.71;99692.00;5050879;28;20171;-70
2021/06/20 01:50:25;;;;;;;1.87;1.77;;;;;;;20.79;75.98;99683.28;5050633;28;20268;-70
2021/06/20 01:53:01;;;;;;;1.83;1.73;;;;;;;20.89;75.96;99687.25;5050921;28;20180;-70
2021/06/20 01:55:27;;;;;;;2.37;2.13;;;;;;;20.91;75.94;99681.28;5050550;28;20245;-70
2021/06/20 01:57:52;;;;;;;2.27;2.13;;;;;;;20.96;75.87;99661.44;5050481;28;20187;-70
2021/06/20 02:00:18;;;;;;;2.33;2.23;;;;;;;20.95;76.03;99657.06;5050592;28;20197;-70
2021/06/20 02:02:44;;;;;;;1.97;1.87;;;;;;;20.87;76.28;99648.00;5050698;28;20254;-70
2021/06/20 02:05:10;;;;;;;2.37;2.17;;;;;;;20.88;76.28;99646.00;5050641;28;20458;-71
2021/06/20 02:07:37;;;;;;;2.47;2.37;;;;;;;20.79;76.42;99636.09;5050319;28;20175;-71
2021/06/20 02:10:08;;;;;;;2.10;2.00;;;;;;;20.69;76.46;99622.25;5050438;28;20272;-71
2021/06/20 02:12:34;;;;;;;2.20;2.10;;;;;;;20.70;76.39;99610.75;5050479;28;20160;-70
2021/06/20 02:15:00;;;;;;;2.60;2.03;;;;;;;20.86;75.59;99612.28;5050517;28;20207;-70
2021/06/20 02:17:28;;;;;;;2.53;2.33;;;;;;;20.96;74.16;99611.44;5050392;28;20179;-71
2021/06/20 02:20:11;;;;;;;1.77;1.67;;;;;;;20.99;73.34;99607.91;5050511;28;20188;-70
2021/06/20 02:22:39;;;;;;;3.97;1.60;;;;;;;21.10;72.36;99606.63;5032506;28;20215;-71
2021/06/20 02:25:05;;;;;;;1.50;1.40;;;;;;;21.17;71.85;99605.81;5050403;28;20183;-71
2021/06/20 02:27:31;;;;;;;1.70;1.60;;;;;;;21.30;71.14;99608.97;5050202;28;20177;-70
2021/06/20 02:29:56;;;;;;;1.67;1.57;;;;;;;21.25;71.69;99601.03;5050318;28;20259;-70
2021/06/20 02:32:23;;;;;;;1.77;1.67;;;;;;;21.22;72.12;99607.38;5050565;28;20658;-71
2021/06/20 02:34:49;;;;;;;1.57;1.47;;;;;;;21.24;72.83;99603.00;5050376;28;20183;-70
2021/06/20 02:37:16;;;;;;;1.60;1.50;;;;;;;21.20;73.75;99605.00;5050156;28;20268;-71
2021/06/20 02:39:42;;;;;;;1.63;1.50;;;;;;;21.30;73.53;99606.19;5050115;28;20540;-71
2021/06/20 02:42:08;;;;;;;1.50;1.40;;;;;;;21.44;73.28;99616.47;5050321;28;20188;-71
2021/06/20 02:44:34;;;;;;;1.67;1.57;;;;;;;21.50;73.40;99634.28;5065506;28;20600;-71
2021/06/20 02:47:01;;;;;;;1.07;0.97;;;;;;;21.34;73.45;99738.38;5049965;28;20578;-70
2021/06/20 02:49:28;;;;;;;1.40;1.30;;;;;;;21.32;74.48;99804.69;5050163;28;20184;-73
2021/06/20 02:51:54;;;;;;;0.87;0.60;;;;;;;21.12;78.17;99802.69;5050129;28;20215;-72
2021/06/20 02:54:20;;;;;;;0.77;0.70;;;;;;;20.94;79.23;99811.03;5051516;28;20191;-73
2021/06/20 02:56:45;;;;;;;0.70;0.70;;;;;;;20.81;80.43;99777.31;5053646;28;20246;-72
2021/06/20 02:59:10;;;;;;;1.23;0.83;;;;;;;20.66;83.16;99792.38;5053770;28;20599;-73
2021/06/20 03:01:36;;;;;;;0.57;0.43;;;;;;;20.33;85.77;99837.88;5053580;28;20191;-74
2021/06/20 03:04:01;;;;;;;0.33;0.33;;;;;;;20.13;86.93;99818.81;5054010;28;20700;-73
2021/06/20 03:06:26;;;;;;;0.63;0.50;;;;;;;19.96;87.49;99793.75;5053471;28;20172;-73
2021/06/20 03:08:52;;;;;;;0.37;0.37;;;;;;;19.83;89.53;99785.03;5069108;28;20187;-73
2021/06/20 03:11:19;;;;;;;1.00;1.00;;;;;;;19.71;90.81;99780.59;5053495;28;20214;-73
2021/06/20 03:13:46;;;;;;;0.30;0.23;;;;;;;19.57;91.05;99777.78;5053538;28;20241;-73
2021/06/20 03:16:11;;;;;;;1.20;0.80;;;;;;;19.50;92.53;99789.56;5053466;28;20179;-73
2021/06/20 03:18:37;;;;;;;0.50;0.50;;;;;;;19.47;92.94;99773.72;5053393;28;20179;-73
2021/06/20 03:21:02;;;;;;;0.87;0.60;;;;;;;19.46;93.17;99757.50;5053396;28;20222;-73
2021/06/20 03:23:27;;;;;;;1.00;0.70;;;;;;;19.49;93.37;99746.41;5053098;28;20270;-73
2021/06/20 03:25:52;;;;;;;0.30;0.30;;;;;;;19.46;94.09;99791.53;5068690;28;20203;-74
2021/06/20 03:28:18;;;;;;;2.43;0.93;;;;;;;19.35;95.97;99800.94;5052957;28;20175;-73
2021/06/20 03:30:43;;;;;;;0.90;0.90;;;;;;;19.21;97.22;99788.59;5053602;28;20685;-74
2021/06/20 03:33:09;;;;;;;1.43;0.93;;;;;;;19.13;99.30;99784.22;5053153;28;20195;-74
2021/06/20 03:35:35;;;;;;;1.20;0.63;;;;;;;19.04;100.00;99750.50;5053149;28;20631;-74
2021/06/20 03:38:00;;;;;;;0.97;0.90;;;;;;;18.98;100.00;99736.25;5053077;28;20530;-75
2021/06/20 03:40:25;;;;;;;2.30;1.97;;;;;;;18.88;100.00;99684.38;5052947;28;20178;-75
2021/06/20 03:42:51;;;;;;;2.33;1.40;;;;;;;18.87;100.00;99710.47;5053027;28;20180;-75
2021/06/20 03:45:16;;;;;;;1.40;1.00;;;;;;;18.80;100.00;99706.84;5052936;28;20210;-75
2021/06/20 03:47:43;;;;;;;0.80;0.80;;;;;;;18.78;100.00;99695.34;5052767;28;20194;-75
2021/06/20 03:50:09;;;;;;;0.93;0.90;;;;;;;18.74;100.00;99692.56;5052867;28;20679;-74
2021/06/20 03:52:36;;;;;;;0.67;0.67;;;;;;;18.74;100.00;99687.03;5068128;28;20175;-75
2021/06/20 03:55:03;;;;;;;1.50;1.03;;;;;;;18.86;100.00;99697.81;5052752;28;20203;-75
2021/06/20 03:57:28;;;;;;;2.77;0.97;;;;;;;18.84;100.00;99732.59;5052596;28;20665;-75
2021/06/20 03:59:54;;;;;;;2.07;0.50;;;;;;;18.73;100.00;99787.84;5052664;28;20249;-74
2021/06/20 04:02:19;;;;;;;1.37;1.03;;;;;;;18.79;100.00;99822.28;5052705;28;20262;-75
2021/06/20 04:04:45;;;;;;;1.07;1.07;;;;;;;18.84;100.00;99852.41;5052253;28;20526;-75
2021/06/20 04:07:12;;;;;;;2.00;1.80;;;;;;;18.65;100.00;99827.69;5051551;28;20171;-75
2021/06/20 04:09:44;;;;;;;4.30;0.83;;;;;;;18.59;100.00;99791.25;5052520;28;20182;-75
2021/06/20 04:12:11;;;;;;;1.23;1.13;;;;;;;18.58;100.00;99809.03;5052484;28;20553;-73
2021/06/20 04:14:38;;;;;;;3.77;1.73;;;;;;;18.57;100.00;99790.03;5052467;28;20225;-74
2021/06/20 04:17:03;;;;;;;2.13;1.40;;;;;;;18.61;100.00;99774.25;5034337;28;20273;-75
2021/06/20 04:19:29;;;;;;;3.07;2.30;;;;;;;18.65;100.00;99770.38;5052337;28;20301;-74
2021/06/20 04:21:54;;;;;;;1.67;1.57;;;;;;;18.67;100.00;99754.22;5051983;28;20572;-74
2021/06/20 04:24:20;;;;;;;2.13;1.30;;;;;;;18.74;100.00;99720.25;5067436;28;20252;-75
2021/06/20 04:26:45;;;;;;;1.60;1.23;;;;;;;18.77;100.00;99713.94;5052023;28;20175;-74
2021/06/20 04:29:10;;;;;;;2.47;1.20;;;;;;;18.75;100.00;99721.84;5067379;28;20186;-75
2021/06/20 04:31:36;;;;;;;2.37;1.37;;;;;;;18.70;100.00;99730.50;5052032;28;20231;-75
2021/06/20 04:34:02;;;;;;;6.17;1.53;;;;;;;18.70;100.00;99736.03;5052148;28;20202;-74
2021/06/20 04:36:29;;;;;;;4.27;1.40;;;;;;;18.71;100.00;99751.47;5051794;28;20254;-74
2021/06/20 04:38:54;;;;;;;2.27;1.43;;;;;;;18.78;100.00;99775.63;5051947;28;20622;-71
2021/06/20 04:41:21;;;;;;;6.50;1.80;;;;;;;18.80;100.00;99767.72;5051924;28;20177;-72
2021/06/20 04:46:22;;;;;;;4.03;2.10;;;;;;;18.67;100.00;99689.78;5052051;28;20645;-72
2021/06/20 04:48:50;;;;;;;2.37;1.50;;;;;;;18.37;100.00;99617.97;5051617;28;20668;-72
2021/06/20 04:51:15;;;;;;;2.20;1.93;;;;;;;18.56;100.00;99616.94;5051705;28;20799;-72
2021/06/20 04:53:41;;;;;;;3.77;1.67;;;;;;;18.57;100.00;99610.22;5051687;28;20171;-74
2021/06/20 04:56:06;;;;;;;2.07;1.33;;;;;;;18.68;100.00;99584.22;5051591;28;20174;-75
2021/06/20 04:58:32;;;;;;;2.13;1.67;;;;;;;18.70;100.00;99581.88;5051389;28;20168;-75
2021/06/20 05:00:57;;;;;;;1.87;1.33;;;;;;;18.78;100.00;99584.66;5051425;28;20183;-74
2021/06/20 05:03:22;;;;;;;1.47;1.37;;;;;;;18.86;100.00;99586.28;5051735;28;20175;-74
2021/06/20 05:05:48;;;;;;;3.60;1.73;;;;;;;18.93;100.00;99594.63;5051694;28;20584;-75
2021/06/20 05:08:13;;;;;;;2.17;1.60;;;;;;;19.00;100.00;99619.56;5051236;28;20524;-74
2021/06/20 05:10:38;;;;;;;1.23;1.20;;;;;;;19.01;100.00;99618.41;5051282;28;20658;-75
2021/06/20 05:13:04;;;;;;;0.90;0.90;;;;;;;19.17;100.00;99632.69;5051207;28;20179;-71
2021/06/20 05:15:29;;;;;;;2.50;1.43;;;;;;;19.26;100.00;99624.84;5051503;28;20181;-72
2021/06/20 05:17:56;;;;;;;1.77;1.67;;;;;;;19.31;100.00;99632.75;5050751;28;20236;-72
2021/06/20 05:20:22;;;;;;;1.30;1.20;;;;;;;19.38;100.00;99629.22;5051158;28;20175;-72
2021/06/20 05:22:47;;;;;;;3.73;1.47;;;;;;;19.33;100.00;99640.69;5051497;28;20179;-72
2021/06/20 05:25:13;;;;;;;1.90;1.50;;;;;;;19.36;100.00;99645.44;5051091;28;20685;-72
2021/06/20 05:27:38;;;;;;;1.70;1.27;;;;;;;19.25;100.00;99656.50;5051194;28;20837;-72
2021/06/20 05:30:05;;;;;;;1.50;1.40;;;;;;;19.36;100.00;99670.38;5051101;28;20214;-72
2021/06/20 05:32:30;;;;;;;2.00;1.33;;;;;;;19.56;100.00;99681.97;5051134;28;20175;-72
2021/06/20 05:34:56;;;;;;;1.77;1.30;;;;;;;19.61;100.00;99692.66;5050994;28;20707;-72
2021/06/20 05:37:21;;;;;;;2.73;1.70;;;;;;;19.65;100.00;99689.91;5050842;28;20179;-71
2021/06/20 05:39:46;;;;;;;2.07;1.70;;;;;;;19.73;100.00;99677.66;5050875;28;20179;-71
2021/06/20 05:42:12;;;;;;;1.70;1.60;;;;;;;19.71;100.00;99689.13;5050743;28;20648;-74
2021/06/20 05:44:37;;;;;;;3.93;1.50;;;;;;;19.68;100.00;99689.13;5050303;28;20615;-73
2021/06/20 05:47:03;;;;;;;1.63;1.53;;;;;;;19.60;100.00;99680.00;5050174;28;20693;-73
2021/06/20 05:49:29;;;;;;;1.30;1.20;;;;;;;19.55;100.00;99683.16;5050092;28;20662;-75
2021/06/20 05:51:54;;;;;;;1.40;0.97;;;;;;;19.59;100.00;99681.19;5050092;28;20211;-74
2021/06/20 05:54:19;;;;;;;1.53;1.40;;;;;;;19.61;100.00;99693.47;5050388;28;20182;-74
2021/06/20 05:56:45;;;;;;;1.73;1.40;;;;;;;19.65;100.00;99695.44;5049955;28;20687;-74
2021/06/20 05:59:10;;;;;;;3.93;2.40;;;;;;;19.69;100.00;99691.50;5050113;28;20225;-74
2021/06/20 06:01:36;;;;;;;2.93;2.10;;;;;;;19.76;100.00;99699.84;5050068;28;20187;-74
2021/06/20 06:04:01;;;;;;;2.07;1.87;;;;;;;19.81;100.00;99702.22;5050092;28;20992;-74
2021/06/20 06:06:27;;;;;;;2.00;1.50;;;;;;;19.93;100.00;99701.06;5049909;28;20205;-72
2021/06/20 06:08:52;;;;;;;2.73;1.90;;;;;;;20.00;100.00;99689.22;5032145;28;20187;-72
2021/06/20 06:11:18;;;;;;;1.90;1.80;;;;;;;20.06;100.00;99693.97;5065450;28;20211;-72
2021/06/20 06:13:43;;;;;;;3.53;2.20;;;;;;;20.19;100.00;99697.16;5050170;28;20638;-72
2021/06/20 06:16:09;;;;;;;1.80;1.70;;;;;;;20.30;100.00;99697.97;5049983;28;20867;-72
2021/06/20 06:18:34;;;;;;;3.00;2.80;;;;;;;20.43;100.00;99706.72;5049669;28;20179;-72
2021/06/20 06:20:59;;;;;;;2.20;2.00;;;;;;;20.53;100.00;99699.56;5049975;28;20179;-72
2021/06/20 06:23:25;;;;;;;2.00;1.77;;;;;;;20.64;100.00;99692.84;5049979;28;20171;-72
2021/06/20 06:25:50;;;;;;;2.73;2.50;;;;;;;20.74;100.00;99697.59;5050044;28;20650;-72
2021/06/20 06:28:16;;;;;;;1.97;1.60;;;;;;;20.86;100.00;99701.16;5065053;28;20228;-72
2021/06/20 06:30:41;;;;;;;2.30;2.10;;;;;;;21.02;100.00;99698.75;5053677;28;20221;-72
2021/06/20 06:33:07;;;;;;;2.07;1.97;;;;;;;21.03;100.00;99703.09;5053888;28;20397;-73
2021/06/20 06:35:32;;;;;;;2.20;2.00;;;;;;;21.24;100.00;99699.47;5055398;28;20323;-71
2021/06/20 06:37:58;;;;;;;3.67;2.17;;;;;;;21.32;100.00;99696.28;5057471;28;20187;-72
2021/06/20 06:40:24;;;;;;;2.20;2.10;;;;;;;21.39;100.00;99701.03;5056966;28;20620;-72
2021/06/20 06:42:49;;;;;;;1.90;1.80;;;;;;;21.44;100.00;99694.28;5054803;28;20179;-72
2021/06/20 06:45:16;;;;;;;2.33;1.83;;;;;;;21.54;99.16;99704.53;5054325;28;20215;-73
2021/06/20 06:47:42;;;;;;;3.80;2.67;;;;;;;21.61;99.43;99710.88;5053910;28;20565;-74
2021/06/20 06:50:08;;;;;;;1.53;1.43;;;;;;;21.61;96.25;99699.75;5053909;28;20183;-77
2021/06/20 06:52:34;;;;;;;1.87;1.70;;;;;;;21.64;96.92;99703.72;5053918;28;20182;-73
2021/06/20 06:55:00;;;;;;;1.70;1.60;;;;;;;21.67;96.90;99700.13;5054252;28;20169;-74
2021/06/20 06:57:27;;;;;;;2.23;2.03;;;;;;;21.70;95.26;99699.31;5053719;28;20181;-74
2021/06/20 06:59:53;;;;;;;1.27;1.10;;;;;;;21.75;95.07;99707.25;5053696;28;20171;-75
2021/06/20 07:02:25;;;;;;;3.00;2.17;;;;;;;21.80;94.15;99703.22;5053740;28;20183;-72
2021/06/20 07:04:50;;;;;;;1.60;1.50;;;;;;;21.82;94.50;99704.41;5053708;28;20221;-74
2021/06/20 07:07:16;;;;;;;2.87;2.23;;;;;;;21.85;93.99;99697.25;5053547;28;20199;-74
2021/06/20 07:09:41;;;;;;;4.67;1.83;;;;;;;21.79;90.27;99688.53;5053613;28;20169;-75
2021/06/20 07:12:07;;;;;;;2.03;0.93;;;;;;;21.76;88.44;99702.47;5053476;28;20560;-74
2021/06/20 07:14:36;;;;;;;1.13;1.13;;;;;;;21.76;89.95;99700.47;5053547;28;20171;-74
2021/06/20 07:17:07;;;;;;;2.53;1.50;;;;;;;21.81;88.54;99707.59;5052860;28;20187;-74
2021/06/20 07:19:34;;;;;;;3.90;1.23;;;;;;;21.86;87.99;99713.53;5053045;28;20207;-72
2021/06/20 07:21:59;;;;;;;3.07;1.07;;;;;;;21.90;87.32;99731.00;5052914;28;20719;-72
2021/06/20 07:24:25;;;;;;;1.67;1.53;;;;;;;21.93;87.10;99721.84;5053010;28;20176;-72
2021/06/20 07:26:50;;;;;;;1.63;1.53;;;;;;;22.00;87.18;99720.22;5052642;28;20591;-72
2021/06/20 07:29:15;;;;;;;1.50;1.40;;;;;;;22.06;85.50;99726.97;5052810;28;20630;-72
2021/06/20 07:31:41;;;;;;;2.60;1.83;;;;;;;22.08;86.62;99721.78;5052759;28;20203;-72
2021/06/20 07:34:06;;;;;;;2.23;1.50;;;;;;;22.18;85.94;99729.28;5052721;28;20181;-72
2021/06/20 07:36:32;;;;;;;1.50;1.20;;;;;;;22.25;83.18;99741.13;5057151;28;20273;-72
2021/06/20 07:38:58;;;;;;;1.47;1.10;;;;;;;22.33;84.64;99753.03;5055160;28;20180;-71
2021/06/20 07:41:24;;;;;;;2.73;1.70;;;;;;;22.37;84.40;99753.00;5052302;28;20186;-71
2021/06/20 07:43:50;;;;;;;1.83;1.73;;;;;;;22.45;85.51;99758.13;5052569;28;20182;-71
2021/06/20 07:46:16;;;;;;;1.30;1.20;;;;;;;22.63;86.83;99757.97;5049980;28;20224;-71
2021/06/20 07:48:41;;;;;;;1.87;1.77;;;;;;;22.67;83.33;99744.81;5052807;28;20182;-71
2021/06/20 07:51:06;;;;;;;3.17;1.90;;;;;;;22.73;82.56;99750.75;5052765;28;20292;-71
2021/06/20 07:53:32;;;;;;;1.10;1.10;;;;;;;22.74;82.25;99749.53;5052934;28;20178;-71
2021/06/20 07:55:58;;;;;;;8.27;2.17;;;;;;;22.72;81.42;99744.38;5034776;28;20181;-71
2021/06/20 07:58:23;;;;;;;8.27;1.90;;;;;;;22.79;83.61;99743.53;5052405;28;20180;-71
2021/06/20 08:00:49;;;;;;;1.47;1.37;;;;;;;22.93;81.38;99748.22;5052481;28;20201;-71
2021/06/20 08:03:14;;;;;;;0.70;0.70;;;;;;;22.91;80.55;99734.69;5052701;28;20178;-71
2021/06/20 08:05:39;;;;;;;1.37;1.17;;;;;;;23.00;81.86;99739.78;5052159;28;20693;-71
2021/06/20 08:08:05;;;;;;;1.50;1.40;;;;;;;23.08;80.04;99753.22;5052184;28;20185;-71
2021/06/20 08:10:30;;;;;;;2.43;1.93;;;;;;;23.16;79.73;99753.97;5052479;28;20200;-71
2021/06/20 08:12:56;;;;;;;2.47;1.90;;;;;;;23.21;79.18;99753.50;5052699;28;20207;-71
2021/06/20 08:15:21;;;;;;;2.27;1.97;;;;;;;23.23;79.12;99761.44;5052388;28;20211;-76
2021/06/20 08:17:46;;;;;;;1.40;1.30;;;;;;;23.25;78.14;99756.25;5052450;28;20229;-77
2021/06/20 08:20:13;;;;;;;1.73;1.63;;;;;;;23.24;79.52;99740.72;5052305;28;20199;-75
2021/06/20 08:22:40;;;;;;;1.97;1.60;;;;;;;23.24;76.48;99749.09;5034279;28;20194;-72
2021/06/20 08:25:08;;;;;;;1.93;1.27;;;;;;;23.33;77.16;99758.56;5052184;28;20259;-73
2021/06/20 08:27:34;;;;;;;1.83;1.70;;;;;;;23.42;77.94;99774.78;5052022;28;20182;-72
2021/06/20 08:30:00;;;;;;;1.93;1.10;;;;;;;23.45;77.17;99760.81;5052057;28;20833;-72
2021/06/20 08:32:28;;;;;;;1.77;1.67;;;;;;;23.36;74.65;99787.59;5051801;28;20202;-72
2021/06/20 08:34:53;;;;;;;1.63;1.60;;;;;;;23.37;72.99;99783.59;5066935;28;20550;-72
2021/06/20 08:37:19;;;;;;;2.40;2.00;;;;;;;23.29;73.44;99793.22;5051219;28;20679;-72
2021/06/20 08:39:44;;;;;;;2.53;0.93;;;;;;;23.13;73.00;99788.22;5053188;28;20223;-73
2021/06/20 08:42:10;;;;;;;1.27;1.17;;;;;;;23.26;74.68;99786.50;5061137;28;20194;-75
2021/06/20 08:44:35;;;;;;;1.20;1.07;;;;;;;23.42;72.49;99786.72;5060762;28;20179;-72
2021/06/20 08:47:02;;;;;;;1.20;1.10;;;;;;;23.51;73.40;99779.88;5053095;28;20726;-73
2021/06/20 08:49:29;;;;;;;1.53;1.43;;;;;;;23.67;71.47;99780.91;5066386;28;20183;-73
2021/06/20 08:51:57;;;;;;;1.67;1.57;;;;;;;23.75;70.40;99790.00;5049651;28;20609;-73
2021/06/20 08:54:23;;;;;;;0.90;0.90;;;;;;;23.63;70.41;99782.16;5071622;28;20177;-73
2021/06/20 08:56:50;;;;;;;1.30;1.20;;;;;;;23.59;70.09;99776.63;5052654;28;20187;-73
2021/06/20 08:59:16;;;;;;;2.10;1.90;;;;;;;23.57;71.89;99778.19;5051551;28;20228;-73
2021/06/20 09:01:42;;;;;;;1.70;1.37;;;;;;;23.59;72.03;99778.63;5051358;28;20196;-73
2021/06/20 09:04:07;;;;;;;1.13;1.03;;;;;;;23.72;70.90;99774.88;5050921;28;20176;-73
2021/06/20 09:06:33;;;;;;;1.87;1.70;;;;;;;23.71;71.69;99780.84;5050649;28;20189;-73
2021/06/20 09:09:02;;;;;;;1.43;1.33;;;;;;;23.81;72.76;99790.31;5073254;28;20821;-75
2021/06/20 09:11:31;;;;;;;1.50;1.40;;;;;;;23.97;69.87;99782.91;5050186;28;20605;-73
2021/06/20 09:14:07;;;;;;;1.47;1.37;;;;;;;24.06;70.99;99782.41;5049069;28;20238;-73
2021/06/20 09:16:35;;;;;;;1.43;1.33;;;;;;;24.14;69.14;99778.31;5055256;28;20175;-73
2021/06/20 09:19:01;;;;;;;1.07;0.97;;;;;;;24.14;64.78;99781.09;5068614;28;20179;-73
2021/06/20 09:21:27;;;;;;;5.10;1.10;;;;;;;24.19;66.27;99779.84;5071223;28;20647;-76
2021/06/20 09:23:54;;;;;;;1.30;1.20;;;;;;;24.25;65.93;99781.75;5031220;28;20179;-73
2021/06/20 09:26:38;;;;;;;2.43;2.23;;;;;;;24.35;65.09;99785.63;5013249;28;20634;-72
2021/06/20 09:29:05;;;;;;;11.73;1.30;;;;;;;24.42;64.94;99781.94;5031051;28;20616;-73
2021/06/20 09:31:47;;;;;;;1.43;1.33;;;;;;;24.41;64.09;99788.72;5030575;28;20203;-76
2021/06/20 09:34:13;;;;;;;1.63;1.53;;;;;;;24.50;65.32;99787.00;5022835;28;20251;-74
2021/06/20 09:36:38;;;;;;;1.40;1.30;;;;;;;24.62;66.56;99794.00;5053066;28;20627;-74
2021/06/20 09:39:24;;;;;;;1.50;1.27;;;;;;;24.71;64.38;99799.84;5056126;28;20175;-74
2021/06/20 09:42:07;;;;;;;3.30;1.40;;;;;;;24.72;64.62;99790.25;5040857;28;20278;-73
2021/06/20 09:44:39;;;;;;;1.87;1.77;;;;;;;24.72;65.07;99783.88;5050242;28;20183;-73
2021/06/20 09:47:08;;;;;;;1.93;1.50;;;;;;;24.69;66.49;99787.50;5055569;28;20262;-73
2021/06/20 09:49:37;;;;;;;1.37;1.27;;;;;;;24.82;68.00;99789.28;5050547;28;20252;-74
2021/06/20 09:52:11;;;;;;;2.83;1.80;;;;;;;24.71;65.18;99785.88;5032839;28;20690;-75
2021/06/20 09:54:39;;;;;;;1.43;1.33;;;;;;;24.78;66.40;99782.19;5032170;28;20237;-74
2021/06/20 09:57:16;;;;;;;1.40;1.27;;;;;;;24.97;65.56;99786.25;5050014;28;20529;-74
2021/06/20 10:00:08;;;;;;;3.00;1.80;;;;;;;25.01;64.40;99790.59;5049560;28;20536;-74
2021/06/20 10:02:44;;;;;;;5.03;2.40;;;;;;;24.75;65.53;99783.81;5048153;28;20270;-74
2021/06/20 10:05:11;;;;;;;1.70;1.60;;;;;;;24.54;65.40;99784.94;5035868;28;20174;-74
2021/06/20 10:07:37;;;;;;;1.60;1.50;;;;;;;24.36;66.31;99784.41;5054332;28;20186;-74
2021/06/20 10:10:06;;;;;;;2.00;1.83;;;;;;;24.56;66.01;99776.13;5054402;28;20183;-74
2021/06/20 10:12:32;;;;;;;1.70;1.60;;;;;;;24.77;67.75;99780.59;5054178;28;20214;-74
2021/06/20 10:14:58;;;;;;;1.60;1.50;;;;;;;25.08;65.38;99765.31;5054588;28;20190;-74
2021/06/20 10:17:33;;;;;;;5.47;1.60;;;;;;;25.56;65.97;99775.19;5054328;28;20183;-74
2021/06/20 10:20:02;;;;;;;2.37;1.00;;;;;;;25.79;59.96;99768.78;5054617;28;20163;-74
2021/06/20 10:22:45;;;;;;;1.10;1.00;;;;;;;25.61;58.77;99776.72;5054526;28;20197;-74
2021/06/20 10:25:32;;;;;;;1.73;1.43;;;;;;;25.71;58.67;99772.94;5054871;28;20164;-74
2021/06/20 10:28:04;;;;;;;2.17;1.63;;;;;;;25.71;58.83;99770.13;5036442;28;20175;-74
2021/06/20 10:30:34;;;;;;;0.70;0.70;;;;;;;25.80;58.30;99761.97;5054430;28;20566;-74
2021/06/20 10:33:16;;;;;;;1.00;1.00;;;;;;;26.02;56.33;99762.28;5054375;28;20722;-74
2021/06/20 10:35:44;;;;;;;1.10;0.87;;;;;;;25.98;56.77;99759.56;5054286;28;20263;-74
2021/06/20 10:38:47;;;;;;;0.90;0.90;;;;;;;25.90;55.52;99760.16;5054169;28;20653;-74
2021/06/20 10:41:25;;;;;;;1.33;1.17;;;;;;;25.78;55.45;99762.41;5016124;28;20179;-74
2021/06/20 10:44:09;;;;;;;1.60;1.30;;;;;;;25.86;57.35;99754.63;5041108;28;20179;-74
2021/06/20 10:46:36;;;;;;;1.77;1.50;;;;;;;25.99;55.90;99763.16;5067147;28;20179;-73
2021/06/20 10:49:16;;;;;;;1.10;1.10;;;;;;;26.05;55.15;99755.84;5054700;28;20218;-74
2021/06/20 10:51:41;;;;;;;1.60;1.40;;;;;;;26.01;54.94;99767.09;5054072;28;20199;-74
2021/06/20 10:54:07;;;;;;;0.70;0.70;;;;;;;25.94;54.64;99761.66;5035858;28;20178;-74
2021/06/20 10:56:32;;;;;;;1.60;1.50;;;;;;;25.95;56.08;99762.44;5053049;28;20199;-74
2021/06/20 10:58:59;;;;;;;1.13;1.13;;;;;;;25.94;55.84;99756.06;5052874;28;20654;-75
2021/06/20 11:01:39;;;;;;;0.70;0.70;;;;;;;26.02;54.51;99763.06;5053131;28;20215;-75
2021/06/20 11:04:04;;;;;;;0.67;0.67;;;;;;;26.10;55.43;99756.09;5051894;28;20187;-74
2021/06/20 11:06:29;;;;;;;0.93;0.93;;;;;;;26.16;55.41;99755.56;5052667;28;20182;-74
2021/06/20 11:08:56;;;;;;;0.80;0.80;;;;;;;26.22;54.38;99760.25;5064876;28;20175;-74
2021/06/20 11:11:26;;;;;;;1.67;1.57;;;;;;;26.44;58.51;99762.56;5062547;28;20210;-74
2021/06/20 11:13:54;;;;;;;0.97;0.97;;;;;;;26.57;53.74;99764.25;5073680;28;20179;-74
2021/06/20 11:16:27;;;;;;;1.07;1.07;;;;;;;26.68;54.40;99759.19;5055003;28;20570;-74
2021/06/20 11:19:21;;;;;;;2.20;1.80;;;;;;;26.43;51.22;99767.38;5053300;28;20187;-74
2021/06/20 11:22:01;;;;;;;1.20;1.10;;;;;;;26.56;56.54;99762.66;5033498;28;20636;-74
2021/06/20 11:24:41;;;;;;;1.20;1.20;;;;;;;26.80;53.80;99766.09;5033551;28;20186;-74
2021/06/20 11:27:07;;;;;;;1.43;1.33;;;;;;;26.87;54.05;99765.91;5042390;28;20237;-74
2021/06/20 11:29:53;;;;;;;1.37;1.27;;;;;;;27.10;53.80;99778.97;5053594;28;20698;-75
2021/06/20 11:32:24;;;;;;;0.50;0.50;;;;;;;27.25;53.69;99785.78;5055235;28;20218;-74
2021/06/20 11:35:20;;;;;;;2.37;1.47;;;;;;;27.19;53.75;99783.94;5053483;28;20160;-73